Time;durP1;ratioP1;P1;durP2;ratioP2;P2;SDS_P1;SDS_P2;PMS_P1;PMS_P2;Temp;Humidity;BMP_temperature;BMP_pressure;BME280_temperature;BME280_humidity;BME280_pressure;Samples;Min_cycle;Max_cycle;Signal;HPM_P1;HPM_P2
2023/05/27 00:00:34;;;;;;;8.23;3.10;;;;;;;;;;4999115;28;20468;-71
2023/05/27 00:03:04;;;;;;;10.67;3.37;;;;;;;;;;4998255;28;21151;-71
2023/05/27 00:05:36;;;;;;;8.10;4.57;;;;;;;;;;4998365;28;20453;-71
2023/05/27 00:08:03;;;;;;;10.73;4.03;;;;;;;;;;4998474;28;20460;-71
2023/05/27 00:10:31;;;;;;;9.00;4.40;;;;;;;;;;4997130;28;20487;-71
2023/05/27 00:12:59;;;;;;;12.40;4.17;;;;;;;;;;4997937;28;20461;-70
2023/05/27 00:15:30;;;;;;;16.83;4.40;;;;;;;;;;4998145;28;20885;-71
2023/05/27 00:18:04;;;;;;;15.87;4.40;;;;;;;;;;4999700;28;20523;-70
2023/05/27 00:20:38;;;;;;;13.77;4.57;;;;;;;;;;4998879;28;20464;-71
2023/05/27 00:23:06;;;;;;;14.90;3.83;;;;;;;;;;5000336;28;20926;-69
2023/05/27 00:25:34;;;;;;;17.53;4.30;;;;;;;;;;4990833;28;20523;-71
2023/05/27 00:28:02;;;;;;;8.63;4.20;;;;;;;;;;5000667;28;20907;-71
2023/05/27 00:30:30;;;;;;;7.90;3.57;;;;;;;;;;4997953;28;20468;-69
2023/05/27 00:33:00;;;;;;;10.47;4.03;;;;;;;;;;4992602;28;20462;-71
2023/05/27 00:35:28;;;;;;;12.40;3.87;;;;;;;;;;4997300;28;20475;-71
2023/05/27 00:37:59;;;;;;;13.77;3.90;;;;;;;;;;4997628;28;20452;-70
2023/05/27 00:40:47;;;;;;;10.23;4.07;;;;;;;;;;4998435;28;20484;-70
2023/05/27 00:43:22;;;;;;;14.13;3.80;;;;;;;;;;4997950;28;20797;-71
2023/05/27 00:45:54;;;;;;;9.47;4.23;;;;;;;;;;5012273;28;20454;-71
2023/05/27 00:48:23;;;;;;;10.00;3.70;;;;;;;;;;5018295;28;20554;-70
2023/05/27 00:50:52;;;;;;;14.30;3.20;;;;;;;;;;4999650;28;20464;-71
2023/05/27 00:53:20;;;;;;;18.67;4.03;;;;;;;;;;4997062;28;21004;-70
2023/05/27 00:55:50;;;;;;;10.43;3.50;;;;;;;;;;4999653;28;20472;-71
2023/05/27 00:58:21;;;;;;;9.87;3.50;;;;;;;;;;4997393;28;20472;-71
2023/05/27 01:03:41;;;;;;;15.90;4.33;;;;;;;;;;4983287;28;20504;-70
2023/05/27 01:06:15;;;;;;;16.93;4.20;;;;;;;;;;4999201;28;20571;-70
2023/05/27 01:08:47;;;;;;;11.93;3.67;;;;;;;;;;4998361;28;20773;-71
2023/05/27 01:11:17;;;;;;;9.60;4.43;;;;;;;;;;4999172;28;20868;-71
2023/05/27 01:13:48;;;;;;;10.30;4.47;;;;;;;;;;4984161;28;20469;-70
2023/05/27 01:16:17;;;;;;;10.33;3.60;;;;;;;;;;4979875;28;20464;-71
2023/05/27 01:18:52;;;;;;;16.90;4.30;;;;;;;;;;4980421;28;20478;-74
2023/05/27 01:21:19;;;;;;;12.33;3.97;;;;;;;;;;4978302;28;20543;-70
2023/05/27 01:23:50;;;;;;;13.40;3.93;;;;;;;;;;4979580;28;20486;-71
2023/05/27 01:26:18;;;;;;;7.07;3.60;;;;;;;;;;4989601;28;20563;-69
2023/05/27 01:28:45;;;;;;;11.53;3.93;;;;;;;;;;5010811;28;21052;-71
2023/05/27 01:31:14;;;;;;;11.20;3.67;;;;;;;;;;4997613;28;20487;-71
2023/05/27 01:33:45;;;;;;;9.17;3.43;;;;;;;;;;4997243;28;20551;-70
2023/05/27 01:36:15;;;;;;;14.10;4.13;;;;;;;;;;4998093;28;20864;-71
2023/05/27 01:38:50;;;;;;;15.83;3.97;;;;;;;;;;4998430;28;20463;-70
2023/05/27 01:41:27;;;;;;;12.13;4.00;;;;;;;;;;4997524;28;21114;-71
2023/05/27 01:43:55;;;;;;;15.87;4.17;;;;;;;;;;4999362;28;20495;-69
2023/05/27 01:46:23;;;;;;;10.30;4.37;;;;;;;;;;5021508;28;20541;-69
2023/05/27 01:48:51;;;;;;;12.83;3.83;;;;;;;;;;5021543;28;20771;-68
2023/05/27 01:51:22;;;;;;;8.83;3.33;;;;;;;;;;5014434;28;20473;-70
2023/05/27 01:53:49;;;;;;;18.80;3.73;;;;;;;;;;4971682;28;20873;-70
2023/05/27 01:56:17;;;;;;;9.30;3.17;;;;;;;;;;4961918;29;20838;-70
2023/05/27 01:58:46;;;;;;;12.93;3.30;;;;;;;;;;4961167;28;20467;-70
2023/05/27 02:01:14;;;;;;;9.43;3.67;;;;;;;;;;4944060;29;20463;-70
2023/05/27 02:03:41;;;;;;;8.57;4.07;;;;;;;;;;4942690;28;20487;-71
2023/05/27 02:06:08;;;;;;;13.43;3.90;;;;;;;;;;4960909;29;20454;-70
2023/05/27 02:08:36;;;;;;;7.93;3.37;;;;;;;;;;4961206;28;20560;-71
2023/05/27 02:11:03;;;;;;;15.93;4.17;;;;;;;;;;4961638;29;20781;-70
2023/05/27 02:13:31;;;;;;;9.37;2.73;;;;;;;;;;4968610;28;20485;-70
2023/05/27 02:15:59;;;;;;;17.67;4.63;;;;;;;;;;4979983;28;20446;-70
2023/05/27 02:18:27;;;;;;;9.07;4.40;;;;;;;;;;4982957;28;20476;-70
2023/05/27 02:20:54;;;;;;;11.10;3.73;;;;;;;;;;4982662;28;20495;-71
2023/05/27 02:23:32;;;;;;;10.40;3.47;;;;;;;;;;4981598;28;21073;-70
2023/05/27 02:26:00;;;;;;;14.87;3.90;;;;;;;;;;4985032;28;20932;-71
2023/05/27 02:28:32;;;;;;;11.43;3.60;;;;;;;;;;4965099;28;20458;-71
2023/05/27 02:31:01;;;;;;;14.23;4.17;;;;;;;;;;4963649;29;20885;-70
2023/05/27 02:33:28;;;;;;;12.90;4.60;;;;;;;;;;4962558;29;20876;-70
2023/05/27 02:35:56;;;;;;;13.63;4.80;;;;;;;;;;4963299;28;20903;-69
2023/05/27 02:38:24;;;;;;;10.80;4.10;;;;;;;;;;4981987;28;20480;-69
2023/05/27 02:40:52;;;;;;;11.53;4.47;;;;;;;;;;4970383;28;20511;-69
2023/05/27 02:43:21;;;;;;;10.03;3.87;;;;;;;;;;4961255;29;20794;-71
2023/05/27 02:45:49;;;;;;;5.70;3.50;;;;;;;;;;4960919;29;20462;-71
2023/05/27 02:48:19;;;;;;;9.23;3.50;;;;;;;;;;4961625;29;20458;-70
2023/05/27 02:50:50;;;;;;;12.50;3.70;;;;;;;;;;4961343;28;20463;-70
2023/05/27 02:53:18;;;;;;;7.70;3.23;;;;;;;;;;4967881;28;20485;-71
2023/05/27 02:55:46;;;;;;;12.50;3.53;;;;;;;;;;4978085;28;20508;-71
2023/05/27 02:58:16;;;;;;;12.50;3.67;;;;;;;;;;4977405;28;20705;-70
2023/05/27 03:00:44;;;;;;;14.07;3.90;;;;;;;;;;4979454;28;20540;-70
2023/05/27 03:03:13;;;;;;;10.53;3.70;;;;;;;;;;4996186;28;20504;-71
2023/05/27 03:05:43;;;;;;;13.30;3.50;;;;;;;;;;4998196;28;20448;-70
2023/05/27 03:08:10;;;;;;;10.03;3.40;;;;;;;;;;4998903;28;20758;-70
2023/05/27 03:10:38;;;;;;;18.97;4.53;;;;;;;;;;5000148;28;20452;-70
2023/05/27 03:13:06;;;;;;;9.00;3.17;;;;;;;;;;5007656;28;20938;-71
2023/05/27 03:15:35;;;;;;;10.53;3.77;;;;;;;;;;5003826;28;20664;-71
2023/05/27 03:18:03;;;;;;;14.73;3.63;;;;;;;;;;4999060;28;20584;-71
2023/05/27 03:20:34;;;;;;;14.53;7.40;;;;;;;;;;5001957;28;20727;-71
2023/05/27 03:23:02;;;;;;;14.73;6.67;;;;;;;;;;4998948;28;20491;-70
2023/05/27 03:25:30;;;;;;;21.80;13.80;;;;;;;;;;4997712;28;20828;-71
2023/05/27 03:27:58;;;;;;;17.50;9.50;;;;;;;;;;4997865;28;20552;-70
2023/05/27 03:30:28;;;;;;;9.07;4.87;;;;;;;;;;4998805;28;20475;-69
2023/05/27 03:32:55;;;;;;;8.83;4.20;;;;;;;;;;4995397;28;20455;-71
2023/05/27 03:35:23;;;;;;;12.97;4.20;;;;;;;;;;4996966;28;20535;-70
2023/05/27 03:37:51;;;;;;;12.07;4.57;;;;;;;;;;4998391;28;20802;-71
2023/05/27 03:40:20;;;;;;;15.23;5.17;;;;;;;;;;4999209;28;20449;-70
2023/05/27 03:42:47;;;;;;;10.67;4.10;;;;;;;;;;4998149;28;20527;-70
2023/05/27 03:45:15;;;;;;;12.33;4.20;;;;;;;;;;4998884;28;20472;-71
2023/05/27 03:47:43;;;;;;;13.43;4.30;;;;;;;;;;4997983;28;20464;-71
2023/05/27 03:50:11;;;;;;;10.37;4.70;;;;;;;;;;4997811;28;20467;-71
2023/05/27 03:55:51;;;;;;;11.63;3.80;;;;;;;;;;4991712;28;20470;-70
2023/05/27 03:58:19;;;;;;;14.13;3.57;;;;;;;;;;4997674;28;20455;-69
2023/05/27 04:00:47;;;;;;;11.20;4.43;;;;;;;;;;4997281;28;20914;-70
2023/05/27 04:03:15;;;;;;;12.30;5.33;;;;;;;;;;4995748;28;20975;-70
2023/05/27 04:05:42;;;;;;;9.17;3.63;;;;;;;;;;5010928;28;20455;-71
2023/05/27 04:08:13;;;;;;;12.20;3.10;;;;;;;;;;5016647;28;20474;-70
2023/05/27 04:10:40;;;;;;;8.37;3.07;;;;;;;;;;5017766;28;20467;-70
2023/05/27 04:13:09;;;;;;;14.63;4.40;;;;;;;;;;5017723;28;20491;-71
2023/05/27 04:15:38;;;;;;;10.50;3.90;;;;;;;;;;5016347;28;20700;-70
2023/05/27 04:18:06;;;;;;;9.07;3.70;;;;;;;;;;5011356;28;20476;-71
2023/05/27 04:20:37;;;;;;;11.27;3.57;;;;;;;;;;4998045;28;20767;-71
2023/05/27 04:23:04;;;;;;;11.77;5.20;;;;;;;;;;4997488;28;20555;-70
2023/05/27 04:25:32;;;;;;;7.07;3.30;;;;;;;;;;4998117;28;20530;-71
2023/05/27 04:28:03;;;;;;;8.77;3.40;;;;;;;;;;5000552;28;20488;-70
2023/05/27 07:41:24;;;;;;;10.13;3.77;;;;;;;;;;4996341;23;20544;-81
2023/05/27 07:43:53;;;;;;;10.17;3.97;;;;;;;;;;5000884;28;20979;-82
2023/05/27 07:46:21;;;;;;;10.07;3.30;;;;;;;;;;5000474;28;20452;-79
2023/05/27 07:48:51;;;;;;;7.20;2.27;;;;;;;;;;5005261;28;20512;-79
2023/05/27 07:51:19;;;;;;;13.63;3.70;;;;;;;;;;5001655;28;20485;-80
2023/05/27 07:53:47;;;;;;;7.93;2.90;;;;;;;;;;5005999;28;20460;-79
2023/05/27 07:56:15;;;;;;;11.67;3.77;;;;;;;;;;5001232;28;20493;-79
2023/05/27 07:58:43;;;;;;;11.60;3.03;;;;;;;;;;5004195;28;20440;-80
2023/05/27 08:01:12;;;;;;;8.20;4.00;;;;;;;;;;4994795;28;20473;-80
2023/05/27 08:03:39;;;;;;;10.13;3.97;;;;;;;;;;4983859;28;20556;-79
2023/05/27 08:06:07;;;;;;;11.70;2.93;;;;;;;;;;4989897;28;20480;-78
2023/05/27 08:08:34;;;;;;;12.50;3.43;;;;;;;;;;5005827;28;20488;-79
2023/05/27 08:11:03;;;;;;;9.10;3.50;;;;;;;;;;4999806;28;20465;-80
2023/05/27 08:13:30;;;;;;;7.37;3.47;;;;;;;;;;5005527;28;20449;-78
2023/05/27 08:15:59;;;;;;;11.43;3.20;;;;;;;;;;5000612;28;20515;-79
2023/05/27 08:18:27;;;;;;;6.70;2.63;;;;;;;;;;5002972;28;20484;-78
2023/05/27 08:20:54;;;;;;;10.67;3.70;;;;;;;;;;4999099;28;20495;-78
2023/05/27 08:23:22;;;;;;;9.53;3.13;;;;;;;;;;4998577;28;20453;-80
2023/05/27 08:25:49;;;;;;;9.80;3.00;;;;;;;;;;5002901;28;20437;-77
2023/05/27 08:28:16;;;;;;;9.20;2.67;;;;;;;;;;5000416;28;20783;-80
2023/05/27 08:30:46;;;;;;;7.60;2.80;;;;;;;;;;5002727;28;20467;-80
2023/05/27 08:33:15;;;;;;;9.40;2.80;;;;;;;;;;4999113;28;20468;-79
2023/05/27 08:35:43;;;;;;;10.97;2.60;;;;;;;;;;5004346;28;20528;-79
2023/05/27 08:38:10;;;;;;;11.30;4.90;;;;;;;;;;5002215;28;20472;-80
2023/05/27 08:40:42;;;;;;;14.03;3.00;;;;;;;;;;5001367;28;20456;-78
2023/05/27 08:43:10;;;;;;;11.67;3.83;;;;;;;;;;5004963;28;20472;-80
2023/05/27 08:45:40;;;;;;;8.63;2.50;;;;;;;;;;5002783;28;20896;-81
2023/05/27 08:48:08;;;;;;;10.07;2.97;;;;;;;;;;5003671;28;20665;-79
2023/05/27 08:50:37;;;;;;;8.03;3.13;;;;;;;;;;5000671;28;20476;-78
2023/05/27 08:53:09;;;;;;;18.60;2.97;;;;;;;;;;4999155;28;20726;-78
2023/05/27 08:55:41;;;;;;;12.60;3.70;;;;;;;;;;5006548;28;20453;-79
2023/05/27 08:58:15;;;;;;;14.53;4.67;;;;;;;;;;5008241;28;20465;-78
2023/05/27 09:00:45;;;;;;;8.30;3.20;;;;;;;;;;5007913;28;20458;-78
2023/05/27 09:03:13;;;;;;;9.63;3.20;;;;;;;;;;5008116;28;20455;-79
2023/05/27 09:05:41;;;;;;;6.53;2.67;;;;;;;;;;5004666;28;20568;-79
2023/05/27 09:08:19;;;;;;;7.77;2.37;;;;;;;;;;5004441;28;20460;-80
2023/05/27 09:10:46;;;;;;;7.90;2.93;;;;;;;;;;5006969;28;20753;-78
2023/05/27 09:13:13;;;;;;;8.23;2.80;;;;;;;;;;5000317;28;20531;-78
2023/05/27 09:15:42;;;;;;;8.07;2.80;;;;;;;;;;5003373;28;20627;-78
2023/05/27 09:18:10;;;;;;;12.33;3.13;;;;;;;;;;5004994;28;20871;-78
2023/05/27 09:20:48;;;;;;;11.47;3.03;;;;;;;;;;5005046;23;20496;-70
2023/05/27 09:24:02;;;;;;;9.80;3.00;;;;;;;;;;4978220;28;20468;-71
2023/05/27 09:26:51;;;;;;;10.17;3.40;;;;;;;;;;4977132;28;20525;-71
2023/05/27 09:32:10;;;;;;;9.87;3.50;;;;;;;;;;4995696;28;20487;-72
2023/05/27 09:34:43;;;;;;;15.63;2.60;;;;;;;;;;4999733;28;20463;-70
2023/05/27 09:37:39;;;;;;;11.40;3.40;;;;;;;;;;4996805;28;20652;-71
2023/05/27 09:43:10;;;;;;;8.90;3.03;;;;;;;;;;4247899;26;20512;-80
2023/05/27 09:45:39;;;;;;;11.03;3.87;;;;;;;;;;5007328;28;20498;-80
2023/05/27 09:48:10;;;;;;;13.87;3.67;;;;;;;;;;5001390;28;20539;-79
2023/05/27 09:50:37;;;;;;;11.23;3.70;;;;;;;;;;4999280;28;20472;-80
2023/05/27 09:53:06;;;;;;;8.07;3.07;;;;;;;;;;5003298;28;20547;-79
2023/05/27 09:55:35;;;;;;;18.53;5.33;;;;;;;;;;4982393;28;20549;-80
2023/05/27 09:58:07;;;;;;;12.43;5.40;;;;;;;;;;4995286;28;20750;-81
2023/05/27 10:00:37;;;;;;;11.00;3.07;;;;;;;;;;4995814;28;20465;-78
2023/05/27 10:03:06;;;;;;;8.77;2.80;;;;;;;;;;4983558;28;20481;-80
2023/05/27 10:05:33;;;;;;;10.17;3.53;;;;;;;;;;4982416;28;20489;-79
2023/05/27 10:08:01;;;;;;;8.90;3.73;;;;;;;;;;4984035;28;20482;-78
2023/05/27 10:10:29;;;;;;;12.53;3.90;;;;;;;;;;4984135;28;20469;-80
2023/05/27 10:13:09;;;;;;;11.20;3.43;;;;;;;;;;4983604;28;20453;-80
2023/05/27 10:15:44;;;;;;;9.60;3.80;;;;;;;;;;4985546;28;20446;-79
2023/05/27 10:18:13;;;;;;;15.97;4.40;;;;;;;;;;4976195;28;20721;-80
2023/05/27 10:20:43;;;;;;;12.10;3.27;;;;;;;;;;4988568;28;20461;-78
2023/05/27 10:23:17;;;;;;;9.27;3.43;;;;;;;;;;4973146;28;20454;-81
2023/05/27 10:25:55;;;;;;;10.53;3.73;;;;;;;;;;4986661;28;20803;-81
2023/05/27 10:28:31;;;;;;;8.17;3.83;;;;;;;;;;4979496;28;20861;-78
2023/05/27 10:31:09;;;;;;;12.80;4.27;;;;;;;;;;4979692;28;20933;-80
2023/05/27 10:33:37;;;;;;;10.43;3.20;;;;;;;;;;4981232;28;20519;-78
2023/05/27 10:36:08;;;;;;;8.97;2.90;;;;;;;;;;4981141;28;20461;-81
2023/05/27 10:38:35;;;;;;;7.90;2.50;;;;;;;;;;4982013;28;20457;-80
2023/05/27 10:41:03;;;;;;;8.60;3.63;;;;;;;;;;4983582;28;20564;-80
2023/05/27 10:43:32;;;;;;;7.90;3.03;;;;;;;;;;4986049;28;21153;-79
2023/05/27 10:46:08;;;;;;;9.97;3.20;;;;;;;;;;4982516;28;20488;-79
2023/05/27 10:48:41;;;;;;;14.53;3.87;;;;;;;;;;4980333;28;20465;-79
2023/05/27 10:51:13;;;;;;;12.40;3.60;;;;;;;;;;4980889;28;20458;-80
2023/05/27 10:53:40;;;;;;;10.57;2.60;;;;;;;;;;4984560;28;20489;-80
2023/05/27 10:56:12;;;;;;;7.13;2.80;;;;;;;;;;4984250;28;20473;-79
2023/05/27 10:58:41;;;;;;;9.23;3.40;;;;;;;;;;4983623;28;20907;-80
2023/05/27 11:01:11;;;;;;;9.20;3.27;;;;;;;;;;4984074;28;20510;-82
2023/05/27 11:03:44;;;;;;;9.20;3.03;;;;;;;;;;4985839;28;20482;-78
2023/05/27 11:06:12;;;;;;;12.73;3.50;;;;;;;;;;4979637;28;20505;-78
2023/05/27 11:08:40;;;;;;;14.17;3.27;;;;;;;;;;4981037;28;20584;-79
2023/05/27 11:11:08;;;;;;;10.63;3.00;;;;;;;;;;4981731;28;20536;-79
2023/05/27 11:13:37;;;;;;;9.30;2.67;;;;;;;;;;4980536;28;20763;-80
2023/05/27 11:16:08;;;;;;;10.33;3.47;;;;;;;;;;4987276;28;20508;-78
2023/05/27 11:18:37;;;;;;;14.97;3.10;;;;;;;;;;4996241;28;20457;-80
2023/05/27 11:21:10;;;;;;;9.53;4.10;;;;;;;;;;4985104;28;20468;-78
2023/05/27 11:23:44;;;;;;;15.33;6.60;;;;;;;;;;4974124;28;20482;-79
2023/05/27 11:26:23;;;;;;;10.03;3.13;;;;;;;;;;4981015;28;20573;-79
2023/05/27 11:28:51;;;;;;;11.40;3.10;;;;;;;;;;4979742;28;20549;-80
2023/05/27 11:31:27;;;;;;;7.43;3.83;;;;;;;;;;4984507;28;20466;-79
2023/05/27 11:33:55;;;;;;;16.17;6.73;;;;;;;;;;4977019;28;20571;-79
2023/05/27 11:36:28;;;;;;;11.77;5.27;;;;;;;;;;4987711;28;20557;-80
2023/05/27 11:38:56;;;;;;;10.20;4.00;;;;;;;;;;4979539;28;21069;-80
2023/05/27 11:41:26;;;;;;;8.40;2.57;;;;;;;;;;4975962;28;20469;-81
2023/05/27 11:44:02;;;;;;;9.80;3.53;;;;;;;;;;4985221;28;20548;-81
2023/05/27 11:46:42;;;;;;;9.53;3.20;;;;;;;;;;4978788;28;21078;-79
2023/05/27 11:49:19;;;;;;;10.07;3.30;;;;;;;;;;4978140;28;20489;-80
2023/05/27 11:51:49;;;;;;;6.80;3.10;;;;;;;;;;4981992;28;21081;-79
2023/05/27 11:54:24;;;;;;;8.60;2.80;;;;;;;;;;4984681;28;20476;-81
2023/05/27 12:02:21;;;;;;;8.80;3.13;;;;;;;;;;4994262;28;20457;-79
2023/05/27 12:04:48;;;;;;;8.50;3.20;;;;;;;;;;5009250;28;20244;-79
2023/05/27 12:07:25;;;;;;;10.00;5.43;;;;;;;;;;5001124;28;20448;-83
2023/05/27 12:09:52;;;;;;;7.80;2.40;;;;;;;;;;5004280;28;20461;-79
2023/05/27 12:12:20;;;;;;;11.50;6.23;;;;;;;;;;4995569;28;20507;-79
2023/05/27 12:14:50;;;;;;;9.87;3.93;;;;;;;;;;4997589;28;20518;-79
2023/05/27 12:17:19;;;;;;;7.40;2.80;;;;;;;;;;4995945;28;20464;-79
2023/05/27 12:19:48;;;;;;;15.40;4.33;;;;;;;;;;4994138;28;20533;-81
2023/05/27 12:22:16;;;;;;;10.80;3.33;;;;;;;;;;5004425;28;20460;-80
2023/05/27 12:24:45;;;;;;;10.10;2.87;;;;;;;;;;4999853;28;20547;-79
2023/05/27 12:27:12;;;;;;;8.53;3.07;;;;;;;;;;5002226;28;20455;-78
2023/05/27 12:29:39;;;;;;;9.13;3.23;;;;;;;;;;5002261;28;20570;-79
2023/05/27 12:32:07;;;;;;;7.27;3.37;;;;;;;;;;4995074;28;20607;-80
2023/05/27 12:34:34;;;;;;;7.70;2.70;;;;;;;;;;4999042;28;20472;-76
2023/05/27 12:37:10;;;;;;;11.80;2.90;;;;;;;;;;4997322;28;20468;-80
2023/05/27 12:39:38;;;;;;;9.03;3.17;;;;;;;;;;5000742;28;20659;-80
2023/05/27 12:42:11;;;;;;;9.87;3.40;;;;;;;;;;4999825;28;20918;-79
2023/05/27 12:44:42;;;;;;;14.87;4.50;;;;;;;;;;4997861;28;20920;-80
2023/05/27 12:47:09;;;;;;;10.30;3.23;;;;;;;;;;5000305;28;20472;-80
2023/05/27 12:49:38;;;;;;;10.70;3.30;;;;;;;;;;5000310;28;20471;-80
2023/05/27 12:52:05;;;;;;;8.80;3.83;;;;;;;;;;4996759;28;20460;-82
2023/05/27 12:54:33;;;;;;;11.43;3.63;;;;;;;;;;5000478;28;20508;-78
2023/05/27 12:57:12;;;;;;;13.03;3.50;;;;;;;;;;4994428;28;20465;-79
2023/05/27 12:59:44;;;;;;;8.33;3.10;;;;;;;;;;5001803;28;20468;-79
2023/05/27 13:02:12;;;;;;;6.67;2.77;;;;;;;;;;4999754;28;20547;-79
2023/05/27 13:04:41;;;;;;;9.17;3.80;;;;;;;;;;5017675;28;20586;-80
2023/05/27 13:07:11;;;;;;;9.10;2.77;;;;;;;;;;5000899;28;20799;-80
2023/05/27 13:09:39;;;;;;;11.93;3.80;;;;;;;;;;4999666;28;20465;-78
2023/05/27 13:12:07;;;;;;;9.83;3.87;;;;;;;;;;5000031;28;20568;-80
2023/05/27 13:14:34;;;;;;;7.43;3.30;;;;;;;;;;5004486;28;20504;-78
2023/05/27 13:17:06;;;;;;;7.77;2.80;;;;;;;;;;4998356;28;20465;-78
2023/05/27 13:19:36;;;;;;;10.67;3.80;;;;;;;;;;4995572;28;20472;-80
2023/05/27 13:22:08;;;;;;;10.03;2.80;;;;;;;;;;4992544;28;20605;-79
2023/05/27 13:24:36;;;;;;;6.90;2.70;;;;;;;;;;5010871;28;20467;-79
2023/05/27 13:27:06;;;;;;;10.53;4.10;;;;;;;;;;5003264;28;20463;-80
2023/05/27 13:29:34;;;;;;;8.17;3.07;;;;;;;;;;5001606;28;20507;-79
2023/05/27 13:32:04;;;;;;;9.90;3.83;;;;;;;;;;5004809;28;20706;-81
2023/05/27 13:34:32;;;;;;;9.63;2.90;;;;;;;;;;5005122;28;20728;-78
2023/05/27 13:37:25;;;;;;;8.37;2.50;;;;;;;;;;5002104;28;20946;-79
2023/05/27 13:39:53;;;;;;;6.40;2.37;;;;;;;;;;5004419;28;20479;-82
2023/05/27 13:42:21;;;;;;;8.97;2.80;;;;;;;;;;5004107;28;20548;-79
2023/05/27 13:44:57;;;;;;;10.07;2.70;;;;;;;;;;5022023;28;20532;-79
2023/05/27 13:47:26;;;;;;;6.43;3.20;;;;;;;;;;5003253;28;20456;-79
2023/05/27 13:49:59;;;;;;;9.27;3.30;;;;;;;;;;5004848;28;20542;-79
2023/05/27 13:52:33;;;;;;;9.23;2.77;;;;;;;;;;5000262;28;20493;-77
2023/05/27 13:55:00;;;;;;;7.87;3.00;;;;;;;;;;5000769;28;20571;-79
2023/05/27 13:57:28;;;;;;;8.60;2.80;;;;;;;;;;5003166;28;20468;-79
2023/05/27 13:59:56;;;;;;;8.20;2.50;;;;;;;;;;5002946;28;20471;-79
2023/05/27 14:02:23;;;;;;;11.43;3.40;;;;;;;;;;4998085;28;20499;-79
2023/05/27 14:04:52;;;;;;;8.00;3.10;;;;;;;;;;5002133;28;20484;-79
2023/05/27 14:07:20;;;;;;;9.27;3.67;;;;;;;;;;5000458;28;20516;-80
2023/05/27 14:09:48;;;;;;;10.13;3.47;;;;;;;;;;5006048;28;20512;-80
2023/05/27 14:12:19;;;;;;;10.03;3.20;;;;;;;;;;5005412;28;20460;-82
2023/05/27 14:14:46;;;;;;;6.93;3.50;;;;;;;;;;5002219;28;20453;-80
2023/05/27 14:17:15;;;;;;;9.70;3.07;;;;;;;;;;5003576;28;20449;-80
2023/05/27 14:19:43;;;;;;;8.80;2.87;;;;;;;;;;5003384;28;20520;-83
2023/05/27 14:22:18;;;;;;;9.90;3.47;;;;;;;;;;5003849;28;20567;-79
2023/05/27 14:28:12;;;;;;;9.33;3.10;;;;;;;;;;5016537;28;20537;-80
2023/05/27 14:30:53;;;;;;;9.87;6.03;;;;;;;;;;4984031;28;20465;-81
2023/05/27 14:33:23;;;;;;;7.37;3.33;;;;;;;;;;4984623;28;20467;-78
2023/05/27 14:35:51;;;;;;;5.60;3.27;;;;;;;;;;5001156;28;20484;-80
2023/05/27 14:38:20;;;;;;;6.67;2.47;;;;;;;;;;5002891;28;20639;-79
2023/05/27 14:40:49;;;;;;;10.10;3.13;;;;;;;;;;5001109;28;20453;-78
2023/05/27 14:43:16;;;;;;;8.27;2.97;;;;;;;;;;4998230;28;20496;-80
2023/05/27 14:45:44;;;;;;;7.97;4.03;;;;;;;;;;5001015;28;20494;-79
2023/05/27 14:48:11;;;;;;;7.70;3.17;;;;;;;;;;5001224;28;20551;-79
2023/05/27 14:50:40;;;;;;;9.53;3.40;;;;;;;;;;5003207;28;20900;-81
2023/05/27 14:53:07;;;;;;;6.73;2.70;;;;;;;;;;5000870;28;20447;-79
2023/05/27 14:55:36;;;;;;;10.50;3.10;;;;;;;;;;5003081;28;20457;-79
2023/05/27 14:58:04;;;;;;;6.30;2.70;;;;;;;;;;5003586;28;20464;-81
2023/05/27 15:00:31;;;;;;;11.60;3.10;;;;;;;;;;5004329;28;20476;-78
2023/05/27 15:02:59;;;;;;;7.50;2.50;;;;;;;;;;5001509;28;20457;-79
2023/05/27 15:05:26;;;;;;;7.90;2.60;;;;;;;;;;5006662;28;20811;-79
2023/05/27 15:07:54;;;;;;;7.83;2.53;;;;;;;;;;5002657;28;20479;-81
2023/05/27 15:10:24;;;;;;;7.37;2.80;;;;;;;;;;4985254;28;20442;-79
2023/05/27 15:12:54;;;;;;;5.87;2.93;;;;;;;;;;4987227;28;20923;-83
2023/05/27 15:15:21;;;;;;;8.07;3.27;;;;;;;;;;5002445;28;20471;-80
2023/05/27 15:17:49;;;;;;;7.27;3.87;;;;;;;;;;5004260;28;20548;-81
2023/05/27 15:20:17;;;;;;;11.13;2.80;;;;;;;;;;5003799;28;20453;-81
2023/05/27 15:22:44;;;;;;;6.90;2.83;;;;;;;;;;5004671;28;20468;-78
2023/05/27 15:25:12;;;;;;;8.93;2.80;;;;;;;;;;5002768;28;20507;-78
2023/05/27 15:27:39;;;;;;;5.03;2.10;;;;;;;;;;5004327;28;20464;-79
2023/05/27 15:30:09;;;;;;;8.23;2.67;;;;;;;;;;5000637;28;21076;-80
2023/05/27 15:32:37;;;;;;;6.00;2.97;;;;;;;;;;5002942;28;20731;-80
2023/05/27 15:35:05;;;;;;;6.43;2.60;;;;;;;;;;5005306;28;20488;-82
2023/05/27 15:37:37;;;;;;;9.67;2.90;;;;;;;;;;4994464;28;20464;-80
2023/05/27 15:40:10;;;;;;;8.80;3.43;;;;;;;;;;5002178;28;20461;-81
2023/05/27 15:42:38;;;;;;;11.73;3.00;;;;;;;;;;5015001;28;20451;-80
2023/05/27 15:45:06;;;;;;;7.50;2.77;;;;;;;;;;5014215;28;20453;-81
2023/05/27 15:47:34;;;;;;;7.33;2.87;;;;;;;;;;5015967;28;20476;-81
2023/05/27 15:50:05;;;;;;;7.77;2.87;;;;;;;;;;5002690;28;20475;-81
2023/05/27 15:52:32;;;;;;;7.63;2.93;;;;;;;;;;5003068;28;20491;-82
2023/05/27 15:55:00;;;;;;;6.37;2.77;;;;;;;;;;5002894;28;20501;-81
2023/05/27 15:57:27;;;;;;;7.00;3.13;;;;;;;;;;5002063;28;20453;-79
2023/05/27 15:59:55;;;;;;;7.97;3.13;;;;;;;;;;4999867;28;20428;-80
2023/05/27 16:02:23;;;;;;;5.67;2.80;;;;;;;;;;4999290;28;20467;-80
2023/05/27 16:04:51;;;;;;;7.97;2.90;;;;;;;;;;5000935;28;20456;-80
2023/05/27 16:07:21;;;;;;;10.60;5.27;;;;;;;;;;4998549;28;20489;-80
2023/05/27 16:09:53;;;;;;;9.13;5.90;;;;;;;;;;5003824;28;20470;-79
2023/05/27 16:12:21;;;;;;;10.63;3.63;;;;;;;;;;4996854;28;20452;-79
2023/05/27 16:14:48;;;;;;;9.50;3.23;;;;;;;;;;5000738;28;21077;-79
2023/05/27 16:17:17;;;;;;;8.30;3.43;;;;;;;;;;4997285;28;20715;-81
2023/05/27 16:19:45;;;;;;;8.87;3.17;;;;;;;;;;4990000;28;20516;-80
2023/05/27 16:22:14;;;;;;;5.90;2.50;;;;;;;;;;4981373;28;20461;-81
2023/05/27 16:24:41;;;;;;;7.33;2.77;;;;;;;;;;4992434;28;20457;-79
2023/05/27 16:27:08;;;;;;;7.30;4.00;;;;;;;;;;4998799;28;20583;-80
2023/05/27 16:29:36;;;;;;;7.87;2.93;;;;;;;;;;4999030;28;20452;-78
2023/05/27 16:32:03;;;;;;;7.97;3.60;;;;;;;;;;4999603;28;20526;-80
2023/05/27 16:34:30;;;;;;;12.40;2.83;;;;;;;;;;4999525;28;20462;-81
2023/05/27 16:36:58;;;;;;;8.80;2.60;;;;;;;;;;5001476;28;20483;-80
2023/05/27 16:39:26;;;;;;;9.43;3.50;;;;;;;;;;5000146;28;20469;-80
2023/05/27 16:41:56;;;;;;;7.70;3.40;;;;;;;;;;5000624;28;20507;-79
2023/05/27 16:44:27;;;;;;;7.70;2.67;;;;;;;;;;4996744;28;20759;-82
2023/05/27 16:46:54;;;;;;;8.97;2.30;;;;;;;;;;4997631;28;20507;-80
2023/05/27 16:49:23;;;;;;;6.23;2.70;;;;;;;;;;4997603;28;20763;-79
2023/05/27 16:51:50;;;;;;;6.80;3.83;;;;;;;;;;4994693;28;20746;-79
2023/05/27 16:54:17;;;;;;;9.73;3.87;;;;;;;;;;4995365;28;20797;-79
2023/05/27 16:56:46;;;;;;;7.03;3.87;;;;;;;;;;4994707;28;20444;-80
2023/05/27 16:59:16;;;;;;;5.50;2.53;;;;;;;;;;4994031;28;20492;-81
2023/05/27 17:01:44;;;;;;;8.23;3.73;;;;;;;;;;4997067;28;20460;-78
2023/05/27 17:04:11;;;;;;;9.47;3.07;;;;;;;;;;4998029;28;20444;-80
2023/05/27 17:06:42;;;;;;;5.43;2.63;;;;;;;;;;5000323;28;20924;-80
2023/05/27 17:09:13;;;;;;;6.77;2.90;;;;;;;;;;5000446;28;20491;-81
2023/05/27 17:11:47;;;;;;;8.20;3.30;;;;;;;;;;5000663;28;20463;-79
2023/05/27 17:14:14;;;;;;;8.10;2.23;;;;;;;;;;4998857;28;20452;-81
2023/05/27 17:16:41;;;;;;;8.20;3.40;;;;;;;;;;5003462;28;20944;-80
2023/05/27 17:19:09;;;;;;;7.30;3.00;;;;;;;;;;5002200;28;20448;-81
2023/05/27 17:21:37;;;;;;;5.90;1.87;;;;;;;;;;5001660;28;20456;-80
2023/05/27 17:24:04;;;;;;;8.83;2.60;;;;;;;;;;4999300;28;20535;-78
2023/05/27 17:26:32;;;;;;;5.40;2.40;;;;;;;;;;4998068;28;20556;-81
2023/05/27 17:29:01;;;;;;;7.37;3.03;;;;;;;;;;4997880;28;20460;-79
2023/05/27 17:31:28;;;;;;;7.80;3.03;;;;;;;;;;5001062;28;20859;-81
2023/05/27 17:33:56;;;;;;;9.70;3.60;;;;;;;;;;4997325;28;20758;-79
2023/05/27 17:36:23;;;;;;;6.03;2.47;;;;;;;;;;4999583;28;20868;-81
2023/05/27 17:38:57;;;;;;;8.57;2.70;;;;;;;;;;5001899;28;20500;-79
2023/05/27 17:41:28;;;;;;;5.87;2.53;;;;;;;;;;5002656;28;20507;-79
2023/05/27 17:43:55;;;;;;;10.30;3.00;;;;;;;;;;5004119;28;20491;-79
2023/05/27 17:46:24;;;;;;;6.83;3.27;;;;;;;;;;4999424;28;20487;-79
2023/05/27 17:48:52;;;;;;;9.30;3.23;;;;;;;;;;4996603;28;20637;-81
2023/05/27 17:51:19;;;;;;;6.33;2.40;;;;;;;;;;5000386;28;20471;-80
2023/05/27 17:53:50;;;;;;;13.37;3.50;;;;;;;;;;4999944;28;20487;-79
2023/05/27 17:56:17;;;;;;;5.80;2.10;;;;;;;;;;4997711;28;20563;-82
2023/05/27 17:58:44;;;;;;;6.90;2.80;;;;;;;;;;5001451;28;20460;-82
2023/05/27 18:01:12;;;;;;;6.90;2.40;;;;;;;;;;4998847;28;20776;-81
2023/05/27 18:03:41;;;;;;;6.77;2.57;;;;;;;;;;5001140;28;20817;-80
2023/05/27 18:06:08;;;;;;;7.23;3.00;;;;;;;;;;5002426;28;20457;-79
2023/05/27 18:08:35;;;;;;;7.90;3.20;;;;;;;;;;5000873;28;20598;-79
2023/05/27 18:11:03;;;;;;;13.07;3.83;;;;;;;;;;5002659;28;20456;-79
2023/05/27 18:13:30;;;;;;;8.33;3.90;;;;;;;;;;5002634;28;20547;-82
2023/05/27 18:15:58;;;;;;;6.93;2.63;;;;;;;;;;5004208;28;20451;-80
2023/05/27 18:18:27;;;;;;;8.13;3.17;;;;;;;;;;5004572;28;20815;-81
2023/05/27 18:20:59;;;;;;;10.53;2.63;;;;;;;;;;5003565;28;20556;-79